createdAt,value
2023-01-11T00:00:48.613Z,67.60
2023-01-11T00:03:16.282Z,67.10
2023-01-11T00:05:44.221Z,66.90
2023-01-11T00:08:11.738Z,66.40
2023-01-11T00:10:39.074Z,67.10
2023-01-11T00:13:06.673Z,67.10
2023-01-11T00:15:35.261Z,67.50
2023-01-11T00:18:03.056Z,67.20
2023-01-11T00:20:30.102Z,66.70
2023-01-11T00:22:56.999Z,66.80
2023-01-11T00:25:23.963Z,66.90
2023-01-11T00:27:50.741Z,67.10
2023-01-11T00:30:18.650Z,66.80
2023-01-11T00:32:45.980Z,67.00
2023-01-11T00:35:12.852Z,66.50
2023-01-11T00:37:40.171Z,66.60
2023-01-11T00:40:08.195Z,66.40
2023-01-11T00:42:53.443Z,66.50
2023-01-11T00:45:38.818Z,66.50
2023-01-11T00:48:07.056Z,66.50
2023-01-11T00:50:36.174Z,66.20
2023-01-11T00:53:03.618Z,66.90
2023-01-11T00:55:32.035Z,66.40
2023-01-11T00:57:59.504Z,66.50
2023-01-11T01:00:27.251Z,66.70
2023-01-11T01:02:54.479Z,66.60
2023-01-11T01:05:21.567Z,66.50
2023-01-11T01:07:48.521Z,65.90
2023-01-11T01:10:17.266Z,65.70
2023-01-11T01:13:02.569Z,65.60
2023-01-11T01:15:29.430Z,65.80
2023-01-11T01:17:56.904Z,65.70
2023-01-11T01:20:26.125Z,66.10
2023-01-11T01:22:53.316Z,66.30
2023-01-11T01:25:20.082Z,66.40
2023-01-11T01:27:46.871Z,66.20
2023-01-11T01:30:13.995Z,66.70
2023-01-11T01:32:40.765Z,66.40
2023-01-11T01:35:08.131Z,66.20
2023-01-11T01:37:35.032Z,66.20
2023-01-11T01:40:01.845Z,66.50
2023-01-11T01:42:28.843Z,66.50
2023-01-11T01:45:00.154Z,66.40
2023-01-11T01:47:45.091Z,66.50
2023-01-11T01:50:27.231Z,66.70
2023-01-11T01:53:02.229Z,66.80
2023-01-11T01:55:33.588Z,66.90
2023-01-11T01:58:04.205Z,66.80
2023-01-11T02:00:31.431Z,67.10
2023-01-11T02:02:59.838Z,67.30
2023-01-11T02:05:28.232Z,67.00
2023-01-11T02:07:57.478Z,67.00
2023-01-11T02:10:27.928Z,67.30
2023-01-11T02:13:09.080Z,66.90
2023-01-11T02:15:36.919Z,66.60
2023-01-11T02:18:05.229Z,66.80
2023-01-11T02:20:44.895Z,67.20
2023-01-11T02:23:17.445Z,67.20
2023-01-11T02:26:02.299Z,67.20
2023-01-11T02:28:51.338Z,67.10
2023-01-11T02:31:26.925Z,67.40
2023-01-11T02:34:25.675Z,67.20
2023-01-11T02:36:52.347Z,67.30
2023-01-11T02:39:34.210Z,67.40
2023-01-11T02:42:44.309Z,67.80
2023-01-11T02:45:29.218Z,67.30
2023-01-11T02:48:04.942Z,67.90
2023-01-11T02:50:43.953Z,68.20
2023-01-11T02:53:43.171Z,68.40
2023-01-11T02:56:19.819Z,68.30
2023-01-11T02:58:49.572Z,68.20
2023-01-11T03:01:18.934Z,68.20
2023-01-11T03:03:45.790Z,68.40
2023-01-11T03:06:35.833Z,68.50
2023-01-11T03:09:07.985Z,68.40
2023-01-11T03:12:08.864Z,68.30
2023-01-11T03:14:44.849Z,69.00
2023-01-11T03:17:38.007Z,68.70
2023-01-11T03:20:25.765Z,68.80
2023-01-11T03:23:07.621Z,69.00
2023-01-11T03:25:49.652Z,68.80
2023-01-11T03:28:50.406Z,69.20
2023-01-11T03:31:29.135Z,68.80
2023-01-11T03:34:33.910Z,68.70
2023-01-11T03:37:11.648Z,68.10
2023-01-11T03:39:50.160Z,68.70
2023-01-11T03:42:19.508Z,68.70
2023-01-11T03:44:50.391Z,68.60
2023-01-11T03:47:19.759Z,68.70
2023-01-11T03:49:53.182Z,68.80
2023-01-11T03:52:27.686Z,68.60
2023-01-11T03:54:55.946Z,68.70
2023-01-11T03:57:34.839Z,68.20
2023-01-11T04:00:01.980Z,68.60
2023-01-11T04:02:35.365Z,68.70
2023-01-11T04:05:02.827Z,68.80
2023-01-11T04:07:29.800Z,68.70
2023-01-11T04:09:58.542Z,68.60
2023-01-11T04:12:26.066Z,69.20
2023-01-11T04:14:52.939Z,69.00
2023-01-11T04:17:19.856Z,69.00
2023-01-11T04:19:46.842Z,69.30
2023-01-11T04:22:13.656Z,69.20
2023-01-11T04:24:40.415Z,69.00
2023-01-11T04:27:07.213Z,69.00
2023-01-11T04:29:33.982Z,69.40
2023-01-11T04:32:01.504Z,68.90
2023-01-11T04:34:28.201Z,68.70
2023-01-11T04:36:54.950Z,69.00
2023-01-11T04:39:21.760Z,68.50
2023-01-11T04:42:06.900Z,68.90
2023-01-11T04:44:33.700Z,68.70
2023-01-11T04:47:00.457Z,68.40
2023-01-11T04:49:27.220Z,68.40
2023-01-11T04:51:53.934Z,68.30
2023-01-11T04:54:20.742Z,68.30
2023-01-11T04:56:47.516Z,68.60
2023-01-11T04:59:14.460Z,68.80
2023-01-11T05:01:41.433Z,68.90
2023-01-11T05:04:08.336Z,68.50
2023-01-11T05:06:35.176Z,68.60
2023-01-11T05:09:02.168Z,68.20
2023-01-11T05:11:29.023Z,68.40
2023-01-11T05:13:57.310Z,68.20
2023-01-11T05:16:24.999Z,68.70
2023-01-11T05:18:54.437Z,68.40
2023-01-11T05:21:25.222Z,68.70
2023-01-11T05:23:52.665Z,68.50
2023-01-11T05:26:25.405Z,67.90
2023-01-11T05:28:52.894Z,67.80
2023-01-11T05:31:19.939Z,67.80
2023-01-11T05:33:47.224Z,67.70
2023-01-11T05:36:17.725Z,67.90
2023-01-11T05:38:49.229Z,67.20
2023-01-11T05:41:17.522Z,67.60
2023-01-11T05:44:04.478Z,67.70
2023-01-11T05:46:32.290Z,67.00
2023-01-11T05:48:59.264Z,67.50
2023-01-11T05:51:27.394Z,67.50
2023-01-11T05:53:54.227Z,67.90
2023-01-11T05:56:21.026Z,67.20
2023-01-11T05:58:51.188Z,67.20
2023-01-11T06:01:20.191Z,67.80
2023-01-11T06:03:47.316Z,67.50
2023-01-11T06:06:15.257Z,68.00
2023-01-11T06:08:42.240Z,67.70
2023-01-11T06:11:09.029Z,67.60
2023-01-11T06:13:36.133Z,68.00
2023-01-11T06:16:07.026Z,68.00
2023-01-11T06:18:36.571Z,67.90
2023-01-11T06:21:04.331Z,68.10
2023-01-11T06:23:33.129Z,68.10
2023-01-11T06:26:12.397Z,67.50
2023-01-11T06:28:41.499Z,67.40
2023-01-11T06:31:08.692Z,67.80
2023-01-11T06:33:36.156Z,67.80
2023-01-11T06:36:08.951Z,67.80
2023-01-11T06:38:36.840Z,67.60
2023-01-11T06:41:05.977Z,67.50
2023-01-11T06:43:33.180Z,67.50
2023-01-11T06:46:00.327Z,67.30
2023-01-11T06:48:28.035Z,67.40
2023-01-11T06:50:57.179Z,67.70
2023-01-11T06:53:28.321Z,67.70
2023-01-11T06:55:57.572Z,67.70
2023-01-11T06:58:26.168Z,67.50
2023-01-11T07:00:55.205Z,67.70
2023-01-11T07:03:24.443Z,67.90
2023-01-11T07:05:53.775Z,67.90
2023-01-11T07:08:20.977Z,68.10
2023-01-11T07:10:48.210Z,68.10
2023-01-11T07:13:17.378Z,68.00
2023-01-11T07:15:46.088Z,68.10
2023-01-11T07:18:13.045Z,67.90
2023-01-11T07:20:41.047Z,68.20
2023-01-11T07:34:37.830Z,68.30
2023-01-11T07:37:04.831Z,64.00
2023-01-11T07:39:42.780Z,64.90
2023-01-11T07:42:29.958Z,64.70
2023-01-11T07:44:56.914Z,64.60
2023-01-11T07:47:23.781Z,64.80
2023-01-11T07:49:50.595Z,64.90
2023-01-11T07:52:17.391Z,64.90
2023-01-11T07:54:44.161Z,65.50
2023-01-11T07:57:10.980Z,65.70
2023-01-11T07:59:38.004Z,65.40
2023-01-11T08:02:04.789Z,65.30
2023-01-11T08:04:31.562Z,65.40
2023-01-11T08:06:58.403Z,65.50
2023-01-11T08:09:25.175Z,65.30
2023-01-11T08:12:10.434Z,65.60
2023-01-11T08:14:40.356Z,65.60
2023-01-11T08:17:13.494Z,65.60
2023-01-11T08:19:40.924Z,65.50
2023-01-11T08:22:07.853Z,65.80
2023-01-11T08:24:37.410Z,65.90
2023-01-11T08:27:04.870Z,66.20
2023-01-11T08:29:32.465Z,65.70
2023-01-11T08:32:00.649Z,65.30
2023-01-11T08:34:29.184Z,65.70
2023-01-11T08:37:02.064Z,66.20
2023-01-11T08:39:32.243Z,66.00
2023-01-11T08:42:00.146Z,65.80
2023-01-11T08:44:33.975Z,65.90
2023-01-11T08:47:02.506Z,66.00
2023-01-11T08:49:30.592Z,65.90
2023-01-11T08:51:57.599Z,65.70
2023-01-11T08:54:25.165Z,65.70
2023-01-11T08:56:52.122Z,65.10
2023-01-11T08:59:20.117Z,65.00
2023-01-11T09:01:47.491Z,64.80
2023-01-11T09:04:24.204Z,64.80
2023-01-11T09:06:52.999Z,64.50
2023-01-11T09:09:20.076Z,64.20
2023-01-11T09:12:00.892Z,64.40
2023-01-11T09:14:28.773Z,64.60
2023-01-11T09:16:56.550Z,65.00
2023-01-11T09:19:23.415Z,64.80
2023-01-11T09:21:51.253Z,64.90
2023-01-11T09:24:18.133Z,64.50
2023-01-11T09:26:45.089Z,64.80
2023-01-11T09:29:12.313Z,64.40
2023-01-11T09:31:39.289Z,64.40
2023-01-11T09:34:07.170Z,64.70
2023-01-11T09:36:36.331Z,64.40
2023-01-11T09:39:08.385Z,64.10
2023-01-11T09:42:00.836Z,63.80
2023-01-11T09:44:29.833Z,63.80
2023-01-11T09:47:17.486Z,64.10
2023-01-11T09:49:50.967Z,63.80
2023-01-11T09:52:33.005Z,64.00
2023-01-11T09:55:01.436Z,63.40
2023-01-11T09:57:41.894Z,62.80
2023-01-11T10:00:12.220Z,63.50
2023-01-11T10:02:41.904Z,62.90
2023-01-11T10:05:51.393Z,63.00
2023-01-11T10:18:25.681Z,62.20
2023-01-11T10:18:39.624Z,62.80
2023-01-11T10:21:04.989Z,61.90
2023-01-11T10:23:42.139Z,62.10
2023-01-11T10:26:28.823Z,62.20
2023-01-11T10:29:20.765Z,62.90
2023-01-11T10:32:02.466Z,62.30
2023-01-11T10:35:10.630Z,61.50
2023-01-11T10:38:02.213Z,61.90
2023-01-11T10:41:04.458Z,61.60
2023-01-11T10:43:47.830Z,62.00
2023-01-11T10:46:19.143Z,61.80
2023-01-11T10:48:47.180Z,62.00
2023-01-11T10:51:24.668Z,62.30
2023-01-11T10:53:51.557Z,62.50
2023-01-11T10:56:33.063Z,62.30
2023-01-11T10:59:15.895Z,61.60
2023-01-11T11:02:06.086Z,61.90
2023-01-11T11:04:50.673Z,61.40
2023-01-11T11:07:23.028Z,61.20
2023-01-11T11:09:58.660Z,61.40
2023-01-11T11:12:28.584Z,60.80
2023-01-11T11:15:11.382Z,61.40
2023-01-11T11:17:41.847Z,61.40
2023-01-11T11:20:13.529Z,61.50
2023-01-11T11:22:40.552Z,61.50
2023-01-11T11:25:17.188Z,62.00
2023-01-11T11:27:51.217Z,62.00
2023-01-11T11:30:32.240Z,62.00
2023-01-11T11:33:05.699Z,62.30
2023-01-11T11:35:45.699Z,61.80
2023-01-11T11:38:39.951Z,61.40
2023-01-11T11:41:09.630Z,61.10
2023-01-11T11:43:41.901Z,60.60
2023-01-11T11:46:18.671Z,60.70
2023-01-11T11:49:18.341Z,60.50
2023-01-11T11:51:48.041Z,60.50
2023-01-11T11:54:39.040Z,60.30
2023-01-11T11:57:28.413Z,61.00
2023-01-11T12:00:23.308Z,61.10
2023-01-11T12:02:52.044Z,60.70
2023-01-11T12:05:19.084Z,61.40
2023-01-11T12:07:55.227Z,60.80
2023-01-11T12:10:25.448Z,60.90
2023-01-11T12:13:03.443Z,60.80
2023-01-11T12:15:34.672Z,60.50
2023-01-11T12:18:26.414Z,59.70
2023-01-11T12:20:53.663Z,60.00
2023-01-11T12:23:25.820Z,59.40
2023-01-11T12:26:14.892Z,59.60
2023-01-11T12:29:05.925Z,59.10
2023-01-11T12:31:55.934Z,59.30
2023-01-11T12:34:22.780Z,59.20
2023-01-11T12:37:02.159Z,59.10
2023-01-11T12:39:35.258Z,59.40
2023-01-11T12:42:02.006Z,59.20
2023-01-11T12:44:44.000Z,58.20
2023-01-11T12:47:41.694Z,58.60
2023-01-11T12:50:26.584Z,58.50
2023-01-11T12:53:11.900Z,59.30
2023-01-11T12:55:59.719Z,58.30
2023-01-11T12:58:51.143Z,58.30
2023-01-11T13:01:37.029Z,58.30
2023-01-11T13:04:12.970Z,58.10
2023-01-11T13:06:54.496Z,57.80
2023-01-11T13:09:40.136Z,58.20
2023-01-11T13:12:12.880Z,57.90
2023-01-11T13:15:07.036Z,57.90
2023-01-11T13:17:46.155Z,58.60
2023-01-11T13:20:58.668Z,58.80
2023-01-11T13:24:05.726Z,58.70
2023-01-11T13:26:36.991Z,58.70
2023-01-11T13:29:11.478Z,58.10
2023-01-11T13:31:40.816Z,58.40
2023-01-11T13:34:16.551Z,58.10
2023-01-11T13:36:48.772Z,57.80
2023-01-11T13:39:29.887Z,57.70
2023-01-11T13:42:00.575Z,57.80
2023-01-11T13:44:37.003Z,57.90
2023-01-11T13:47:11.622Z,58.30
2023-01-11T13:49:51.036Z,57.70
2023-01-11T13:52:37.875Z,58.30
2023-01-11T13:55:11.186Z,58.30
2023-01-11T13:57:55.812Z,58.90
2023-01-11T14:00:45.052Z,59.50
2023-01-11T14:03:19.147Z,59.10
2023-01-11T14:05:55.056Z,59.40
2023-01-11T14:08:51.913Z,59.70
2023-01-11T14:11:40.490Z,59.80
2023-01-11T14:14:20.203Z,59.70
2023-01-11T14:17:08.924Z,59.90
2023-01-11T14:20:04.655Z,58.80
2023-01-11T14:22:53.024Z,58.80
2023-01-11T14:25:29.335Z,58.70
2023-01-11T14:28:11.597Z,59.10
2023-01-11T14:31:01.712Z,58.40
2023-01-11T14:33:51.249Z,58.80
2023-01-11T14:36:36.183Z,58.10
2023-01-11T14:39:21.811Z,58.40
2023-01-11T14:41:54.160Z,60.00
2023-01-11T14:45:14.490Z,59.60
2023-01-11T14:48:05.516Z,59.70
2023-01-11T14:50:55.886Z,59.70
2023-01-11T14:53:28.000Z,59.90
2023-01-11T14:55:54.852Z,60.30
2023-01-11T14:58:25.917Z,60.30
2023-01-11T15:00:55.509Z,60.00
2023-01-11T15:03:22.348Z,60.60
2023-01-11T15:05:58.168Z,60.80
2023-01-11T15:08:42.941Z,61.20
2023-01-11T15:11:35.927Z,60.70
2023-01-11T15:14:32.743Z,61.30
2023-01-11T15:17:20.836Z,60.90
2023-01-11T15:19:49.495Z,61.10
2023-01-11T15:22:34.161Z,61.50
2023-01-11T15:25:04.125Z,61.60
2023-01-11T15:27:38.794Z,61.80
2023-01-11T15:30:08.213Z,61.70
2023-01-11T15:32:36.236Z,61.80
2023-01-11T15:35:24.792Z,61.30
2023-01-11T15:38:15.385Z,61.40
2023-01-11T15:40:46.446Z,61.80
2023-01-11T15:43:13.197Z,61.50
2023-01-11T15:46:14.514Z,62.00
2023-01-11T15:49:02.552Z,62.10
2023-01-11T15:52:01.267Z,62.60
2023-01-11T15:54:40.179Z,62.60
2023-01-11T15:57:54.288Z,62.80
2023-01-11T16:00:58.835Z,62.90
2023-01-11T16:03:50.389Z,62.70
2023-01-11T16:06:37.383Z,63.30
2023-01-11T16:09:16.627Z,63.40
2023-01-11T16:12:13.068Z,64.00
2023-01-11T16:14:46.252Z,64.10
2023-01-11T16:17:15.321Z,64.10
2023-01-11T16:19:45.362Z,64.20
2023-01-11T16:22:19.674Z,63.80
2023-01-11T16:24:51.004Z,64.20
2023-01-11T16:27:25.713Z,64.30
2023-01-11T16:29:53.150Z,64.20
2023-01-11T16:32:32.416Z,64.70
2023-01-11T16:35:01.717Z,64.50
2023-01-11T16:37:43.981Z,64.60
2023-01-11T16:40:11.012Z,64.30
2023-01-11T16:42:59.418Z,63.80
2023-01-11T16:45:40.322Z,64.10
2023-01-11T16:48:16.930Z,64.50
2023-01-11T16:50:58.715Z,64.70
2023-01-11T16:53:27.990Z,64.70
2023-01-11T16:56:07.761Z,64.90
2023-01-11T16:58:39.055Z,64.70
2023-01-11T17:01:06.988Z,64.90
2023-01-11T17:03:36.023Z,65.00
2023-01-11T17:06:15.319Z,65.40
2023-01-11T17:08:47.898Z,65.50
2023-01-11T17:11:23.820Z,64.90
2023-01-11T17:13:57.788Z,65.20
2023-01-11T17:16:46.819Z,65.60
2023-01-11T17:19:24.376Z,65.90
2023-01-11T17:21:54.497Z,65.60
2023-01-11T17:24:24.001Z,66.30
2023-01-11T17:26:53.880Z,66.20
2023-01-11T17:29:29.184Z,65.80
2023-01-11T17:31:59.202Z,65.70
2023-01-11T17:34:35.527Z,65.80
2023-01-11T17:37:10.368Z,66.00
2023-01-11T17:39:44.896Z,66.50
2023-01-11T17:42:33.129Z,66.30
2023-01-11T17:45:14.644Z,66.70
2023-01-11T17:48:15.554Z,66.90
2023-01-11T17:50:51.297Z,66.50
2023-01-11T17:53:35.915Z,66.80
2023-01-11T17:56:05.096Z,66.90
2023-01-11T17:58:39.042Z,66.90
2023-01-11T18:01:08.816Z,66.70
2023-01-11T18:03:43.044Z,66.60
2023-01-11T18:06:23.122Z,66.40
2023-01-11T18:08:52.988Z,66.20
2023-01-11T18:11:29.792Z,66.50
2023-01-11T18:14:02.820Z,66.30
2023-01-11T18:16:30.069Z,66.30
2023-01-11T18:18:57.557Z,66.30
2023-01-11T18:21:27.098Z,66.50
2023-01-11T18:24:09.559Z,66.20
2023-01-11T18:26:45.498Z,65.80
2023-01-11T18:29:37.261Z,65.60
2023-01-11T18:32:05.838Z,66.00
2023-01-11T18:34:32.768Z,66.10
2023-01-11T18:37:00.560Z,65.70
2023-01-11T18:39:27.439Z,66.00
2023-01-11T18:42:10.203Z,66.00
2023-01-11T18:44:39.209Z,66.00
2023-01-11T18:47:25.815Z,66.30
2023-01-11T18:49:53.490Z,66.50
2023-01-11T18:52:21.871Z,66.60
2023-01-11T18:54:48.776Z,67.20
2023-01-11T18:57:15.770Z,67.10
2023-01-11T18:59:43.607Z,67.40
2023-01-11T19:02:17.502Z,67.30
2023-01-11T19:04:45.108Z,67.80
2023-01-11T19:07:12.319Z,68.10
2023-01-11T19:09:39.586Z,68.40
2023-01-11T19:12:06.948Z,68.60
2023-01-11T19:14:34.098Z,68.60
2023-01-11T19:17:01.071Z,69.00
2023-01-11T19:19:27.925Z,69.30
2023-01-11T19:21:54.816Z,69.40
2023-01-11T19:24:21.766Z,69.50
2023-01-11T19:26:48.947Z,69.90
2023-01-11T19:29:17.940Z,70.00
2023-01-11T19:31:48.518Z,70.20
2023-01-11T19:34:16.268Z,70.40
2023-01-11T19:36:43.060Z,70.80
2023-01-11T19:39:10.197Z,70.70
2023-01-11T19:41:57.998Z,71.00
2023-01-11T19:44:35.919Z,71.10
2023-01-11T19:47:12.383Z,71.20
2023-01-11T19:49:40.948Z,71.60
2023-01-11T19:52:14.665Z,71.70
2023-01-11T19:54:43.092Z,71.90
2023-01-11T19:57:20.796Z,71.60
2023-01-11T19:59:49.617Z,71.90
2023-01-11T20:02:18.899Z,72.30
2023-01-11T20:04:45.769Z,72.40
2023-01-11T20:07:13.425Z,72.70
2023-01-11T20:09:40.474Z,72.80
2023-01-11T20:12:09.381Z,72.70
2023-01-11T20:14:36.566Z,72.90
2023-01-11T20:17:03.764Z,72.70
2023-01-11T20:19:30.804Z,73.10
2023-01-11T20:21:57.564Z,73.20
2023-01-11T20:24:33.691Z,73.60
2023-01-11T20:27:04.288Z,73.60
2023-01-11T20:29:31.625Z,73.70
2023-01-11T20:32:13.643Z,73.70
2023-01-11T20:34:45.624Z,74.10
2023-01-11T20:37:12.660Z,74.30
2023-01-11T20:39:39.392Z,74.60
2023-01-11T20:42:06.303Z,74.60
2023-01-11T20:44:33.580Z,75.20
2023-01-11T20:47:00.548Z,75.20
2023-01-11T20:49:29.304Z,75.60
2023-01-11T20:51:56.704Z,75.50
2023-01-11T20:54:24.517Z,75.80
2023-01-11T20:56:51.443Z,75.60
2023-01-11T20:59:20.156Z,75.80
2023-01-11T21:01:48.550Z,75.90
2023-01-11T21:04:23.020Z,75.70
2023-01-11T21:06:49.932Z,75.90
2023-01-11T21:09:18.070Z,76.30
2023-01-11T21:11:52.555Z,76.50
2023-01-11T21:14:20.280Z,76.70
2023-01-11T21:16:47.092Z,76.70
2023-01-11T21:19:15.339Z,76.40
2023-01-11T21:21:42.469Z,76.60
2023-01-11T21:24:12.817Z,76.80
2023-01-11T21:26:40.352Z,77.00
2023-01-11T21:29:07.369Z,77.20
2023-01-11T21:31:35.804Z,77.40
2023-01-11T21:34:03.497Z,77.50
2023-01-11T21:36:31.624Z,77.80
2023-01-11T21:38:59.651Z,77.90
2023-01-11T21:41:47.890Z,78.10
2023-01-11T21:44:15.587Z,78.40
2023-01-11T21:46:42.904Z,78.20
2023-01-11T21:49:10.491Z,78.50
2023-01-11T21:51:38.381Z,78.60
2023-01-11T21:54:07.748Z,78.80
2023-01-11T21:56:35.165Z,78.50
2023-01-11T21:59:02.383Z,78.80
2023-01-11T22:01:29.867Z,79.00
2023-01-11T22:03:57.393Z,79.00
2023-01-11T22:06:24.381Z,79.20
2023-01-11T22:08:51.289Z,79.30
2023-01-11T22:11:18.476Z,79.50
2023-01-11T22:13:45.270Z,79.80
2023-01-11T22:16:17.527Z,79.70
2023-01-11T22:18:45.225Z,79.70
2023-01-11T22:21:15.091Z,79.70
2023-01-11T22:23:42.118Z,79.90
2023-01-11T22:26:11.901Z,80.00
2023-01-11T22:28:58.081Z,80.00
2023-01-11T22:31:26.397Z,80.10
2023-01-11T22:33:53.856Z,80.10
2023-01-11T22:36:22.367Z,80.30
2023-01-11T22:38:49.467Z,80.50
2023-01-11T22:41:17.387Z,80.40
2023-01-11T22:43:45.087Z,80.70
2023-01-11T22:46:23.502Z,80.80
2023-01-11T22:48:51.101Z,80.40
2023-01-11T22:51:20.496Z,80.70
2023-01-11T22:53:48.929Z,80.80
2023-01-11T22:56:19.041Z,81.00
2023-01-11T22:58:46.936Z,81.00
2023-01-11T23:01:20.749Z,80.90
2023-01-11T23:03:48.374Z,81.10
2023-01-11T23:06:36.993Z,81.10
2023-01-11T23:09:05.288Z,80.80
2023-01-11T23:11:55.141Z,81.10
2023-01-11T23:14:22.654Z,80.90
2023-01-11T23:16:50.501Z,81.00
2023-01-11T23:19:18.602Z,81.20
2023-01-11T23:21:46.061Z,81.00
2023-01-11T23:24:14.278Z,81.10
2023-01-11T23:26:41.388Z,81.20
2023-01-11T23:29:08.685Z,81.30
2023-01-11T23:31:35.670Z,81.10
2023-01-11T23:34:03.511Z,81.30
2023-01-11T23:36:39.672Z,81.30
2023-01-11T23:39:08.648Z,81.30
2023-01-11T23:41:54.262Z,81.60
2023-01-11T23:44:22.385Z,81.60
2023-01-11T23:47:09.408Z,81.70
2023-01-11T23:49:36.716Z,81.70
2023-01-11T23:52:03.630Z,81.70
2023-01-11T23:54:32.427Z,81.60
2023-01-11T23:57:00.409Z,81.70
2023-01-11T23:59:27.284Z,81.70
